createdAt,value
2023-04-26T00:00:23.749Z,13.14
2023-04-26T00:01:55.114Z,13.34
2023-04-26T00:03:26.511Z,13.97
2023-04-26T00:04:57.995Z,11.18
2023-04-26T00:06:29.604Z,11.46
2023-04-26T00:08:00.787Z,10.17
2023-04-26T00:09:32.118Z,11.06
2023-04-26T00:11:03.521Z,13.05
2023-04-26T00:12:34.809Z,13.58
2023-04-26T00:14:06.117Z,12.91
2023-04-26T00:15:37.427Z,12.43
2023-04-26T00:17:09.251Z,12.86
2023-04-26T00:18:41.556Z,13.34
2023-04-26T00:20:12.779Z,15.41
2023-04-26T00:21:43.948Z,14.89
2023-04-26T00:23:15.212Z,13.29
2023-04-26T00:24:46.482Z,11.75
2023-04-26T00:26:18.058Z,14.65
2023-04-26T00:27:49.609Z,13.36
2023-04-26T00:29:20.912Z,13.58
2023-04-26T00:30:52.170Z,14.58
2023-04-26T00:32:23.713Z,14.21
2023-04-26T00:33:55.029Z,13.35
2023-04-26T00:35:26.507Z,14.40
2023-04-26T00:36:57.865Z,13.88
2023-04-26T00:38:29.054Z,13.07
2023-04-26T00:40:05.497Z,13.92
2023-04-26T00:41:36.965Z,15.88
2023-04-26T00:43:08.561Z,15.98
2023-04-26T00:44:39.968Z,15.41
2023-04-26T00:46:11.426Z,14.66
2023-04-26T00:47:42.876Z,14.64
2023-04-26T00:49:14.168Z,14.76
2023-04-26T00:50:45.599Z,15.69
2023-04-26T00:52:16.802Z,16.02
2023-04-26T00:53:48.413Z,16.16
2023-04-26T00:55:19.702Z,14.33
2023-04-26T00:56:51.452Z,13.21
2023-04-26T00:58:22.791Z,14.05
2023-04-26T00:59:54.268Z,14.94
2023-04-26T01:01:25.469Z,14.03
2023-04-26T01:02:57.166Z,14.60
2023-04-26T01:04:28.789Z,14.33
2023-04-26T01:05:59.987Z,13.58
2023-04-26T01:07:31.323Z,16.22
2023-04-26T01:09:02.546Z,13.29
2023-04-26T01:10:33.947Z,12.92
2023-04-26T01:12:05.290Z,13.40
2023-04-26T01:13:38.942Z,14.40
2023-04-26T01:15:10.621Z,15.00
2023-04-26T01:16:42.145Z,14.75
2023-04-26T01:18:13.530Z,14.73
2023-04-26T01:19:44.936Z,13.78
2023-04-26T01:21:16.456Z,11.94
2023-04-26T01:22:48.466Z,14.00
2023-04-26T01:24:19.936Z,15.98
2023-04-26T01:25:51.154Z,15.40
2023-04-26T01:27:22.544Z,17.65
2023-04-26T01:28:54.320Z,16.52
2023-04-26T01:30:30.843Z,19.24
2023-04-26T01:32:02.094Z,13.69
2023-04-26T01:33:33.395Z,17.52
2023-04-26T01:35:04.875Z,15.09
2023-04-26T01:36:36.468Z,15.82
2023-04-26T01:38:07.775Z,13.76
2023-04-26T01:39:39.268Z,16.20
2023-04-26T01:41:10.485Z,15.51
2023-04-26T01:42:41.918Z,15.61
2023-04-26T01:44:13.129Z,14.55
2023-04-26T01:45:44.659Z,16.67
2023-04-26T01:47:15.947Z,16.85
2023-04-26T01:48:52.758Z,20.40
2023-04-26T01:50:24.321Z,16.82
2023-04-26T01:51:55.714Z,17.52
2023-04-26T01:53:27.048Z,18.44
2023-04-26T01:54:58.571Z,18.23
2023-04-26T01:56:29.864Z,17.38
2023-04-26T01:58:01.102Z,18.28
2023-04-26T01:59:32.828Z,19.45
2023-04-26T02:01:04.622Z,18.58
2023-04-26T02:02:36.372Z,18.81
2023-04-26T02:04:09.430Z,16.00
2023-04-26T02:05:42.276Z,18.00
2023-04-26T02:07:14.337Z,16.99
2023-04-26T02:08:46.093Z,17.74
2023-04-26T02:10:17.529Z,17.34
2023-04-26T02:11:48.855Z,16.03
2023-04-26T02:13:20.321Z,20.46
2023-04-26T02:14:51.705Z,17.24
2023-04-26T02:16:23.285Z,16.18
2023-04-26T02:17:55.970Z,16.77
2023-04-26T02:19:27.289Z,15.94
2023-04-26T02:20:58.725Z,17.07
2023-04-26T02:22:29.953Z,16.38
2023-04-26T02:24:01.401Z,17.09
2023-04-26T02:25:32.947Z,20.12
2023-04-26T02:27:04.288Z,15.09
2023-04-26T02:28:35.706Z,15.59
2023-04-26T02:30:07.163Z,17.80
2023-04-26T02:31:38.870Z,16.92
2023-04-26T02:33:10.478Z,16.56
2023-04-26T02:34:41.739Z,17.33
2023-04-26T02:36:13.022Z,15.20
2023-04-26T02:37:44.388Z,16.71
2023-04-26T02:39:15.913Z,17.56
2023-04-26T02:40:47.370Z,16.33
2023-04-26T02:42:18.970Z,16.60
2023-04-26T02:43:50.316Z,17.39
2023-04-26T02:45:21.634Z,18.14
2023-04-26T02:46:53.257Z,14.91
2023-04-26T02:48:24.694Z,19.63
2023-04-26T02:49:56.139Z,16.70
2023-04-26T02:51:27.769Z,16.20
2023-04-26T02:52:59.227Z,16.83
2023-04-26T02:54:30.927Z,17.91
2023-04-26T02:56:02.332Z,19.42
2023-04-26T02:57:33.644Z,19.93
2023-04-26T02:59:05.048Z,19.29
2023-04-26T03:00:36.749Z,20.54
2023-04-26T03:02:08.506Z,16.95
2023-04-26T03:03:41.114Z,17.19
2023-04-26T03:05:12.807Z,16.47
2023-04-26T03:06:44.191Z,15.63
2023-04-26T03:08:15.554Z,18.32
2023-04-26T03:09:46.862Z,15.85
2023-04-26T03:11:18.102Z,19.91
2023-04-26T03:12:49.337Z,19.57
2023-04-26T03:14:20.618Z,17.15
2023-04-26T03:15:52.396Z,16.66
2023-04-26T03:17:24.007Z,17.19
2023-04-26T03:18:55.500Z,15.59
2023-04-26T03:20:26.952Z,14.66
2023-04-26T03:21:58.183Z,19.27
2023-04-26T03:23:29.483Z,16.88
2023-04-26T03:25:00.894Z,18.40
2023-04-26T03:26:32.485Z,18.58
2023-04-26T03:28:03.802Z,19.78
2023-04-26T03:29:35.196Z,19.72
2023-04-26T03:31:06.480Z,18.18
2023-04-26T03:32:37.960Z,22.06
2023-04-26T03:34:09.442Z,18.77
2023-04-26T03:35:40.779Z,18.33
2023-04-26T03:37:12.008Z,17.57
2023-04-26T03:38:43.270Z,19.09
2023-04-26T03:40:14.705Z,19.92
2023-04-26T03:41:51.439Z,19.06
2023-04-26T03:43:22.762Z,21.25
2023-04-26T03:44:54.091Z,20.05
2023-04-26T03:46:25.812Z,20.16
2023-04-26T03:47:57.458Z,20.44
2023-04-26T03:49:28.964Z,18.88
2023-04-26T03:51:00.387Z,21.17
2023-04-26T03:52:31.818Z,20.73
2023-04-26T03:54:08.543Z,23.06
2023-04-26T03:55:40.020Z,24.09
2023-04-26T03:57:12.451Z,23.97
2023-04-26T03:58:43.595Z,24.44
2023-04-26T04:00:15.220Z,21.80
2023-04-26T04:01:51.560Z,24.23
2023-04-26T04:03:23.687Z,25.00
2023-04-26T04:04:55.546Z,23.69
2023-04-26T04:06:27.127Z,22.21
2023-04-26T04:08:03.760Z,25.37
2023-04-26T04:09:35.205Z,23.74
2023-04-26T04:11:06.448Z,23.84
2023-04-26T04:12:37.673Z,18.88
2023-04-26T04:14:09.286Z,21.34
2023-04-26T04:15:41.113Z,22.14
2023-04-26T04:17:12.504Z,20.50
2023-04-26T04:18:43.664Z,25.13
2023-04-26T04:20:15.300Z,22.79
2023-04-26T04:21:47.731Z,20.74
2023-04-26T04:23:19.221Z,23.42
2023-04-26T04:24:50.551Z,21.18
2023-04-26T04:26:21.874Z,23.76
2023-04-26T04:27:53.216Z,21.67
2023-04-26T04:29:24.586Z,22.91
2023-04-26T04:30:56.246Z,24.83
2023-04-26T04:32:27.900Z,21.90
2023-04-26T04:33:59.319Z,17.79
2023-04-26T04:35:30.755Z,19.04
2023-04-26T04:37:02.512Z,22.34
2023-04-26T04:38:33.936Z,23.62
2023-04-26T04:40:05.261Z,21.18
2023-04-26T04:41:36.628Z,23.52
2023-04-26T04:43:07.872Z,21.90
2023-04-26T04:44:39.567Z,22.17
2023-04-26T04:46:12.667Z,23.29
2023-04-26T04:47:44.423Z,24.26
2023-04-26T04:49:15.753Z,22.82
2023-04-26T04:50:47.370Z,24.51
2023-04-26T04:52:19.226Z,25.98
2023-04-26T04:53:50.451Z,23.82
2023-04-26T04:55:21.760Z,23.04
2023-04-26T04:56:53.182Z,24.27
2023-04-26T04:58:24.608Z,26.25
2023-04-26T04:59:55.908Z,23.28
2023-04-26T05:01:27.075Z,24.65
2023-04-26T05:02:58.783Z,24.61
2023-04-26T05:04:30.430Z,24.87
2023-04-26T05:06:02.119Z,24.49
2023-04-26T05:07:33.503Z,30.06
2023-04-26T05:09:04.876Z,28.51
2023-04-26T05:10:36.238Z,28.18
2023-04-26T05:12:07.922Z,27.67
2023-04-26T05:13:39.163Z,28.74
2023-04-26T05:15:15.701Z,28.08
2023-04-26T05:16:47.165Z,27.69
2023-04-26T05:18:18.724Z,27.54
2023-04-26T05:19:50.389Z,26.82
2023-04-26T05:21:21.714Z,25.82
2023-04-26T05:22:53.190Z,26.24
2023-04-26T05:24:24.552Z,28.19
2023-04-26T05:26:18.350Z,26.66
2023-04-26T05:27:50.041Z,27.19
2023-04-26T05:29:21.514Z,29.20
2023-04-26T05:30:52.709Z,27.89
2023-04-26T05:32:24.023Z,29.37
2023-04-26T05:33:55.303Z,30.46
2023-04-26T05:35:26.953Z,29.33
2023-04-26T05:37:03.353Z,27.21
2023-04-26T05:38:34.511Z,28.25
2023-04-26T05:40:05.829Z,28.92
2023-04-26T05:41:37.092Z,30.99
2023-04-26T05:43:08.371Z,31.30
2023-04-26T05:44:39.754Z,30.85
2023-04-26T05:46:11.624Z,28.11
2023-04-26T05:47:42.906Z,31.73
2023-04-26T05:49:14.069Z,29.18
2023-04-26T05:50:45.336Z,29.97
2023-04-26T05:52:16.965Z,30.65
2023-04-26T05:53:48.312Z,33.53
2023-04-26T05:55:19.564Z,32.61
2023-04-26T05:56:50.762Z,29.63
2023-04-26T05:58:22.193Z,32.95
2023-04-26T05:59:53.649Z,31.02
2023-04-26T06:01:24.989Z,31.32
2023-04-26T06:02:56.317Z,34.42
2023-04-26T06:04:28.034Z,29.39
2023-04-26T06:05:59.843Z,30.97
2023-04-26T06:07:31.446Z,28.88
2023-04-26T06:09:03.197Z,27.06
2023-04-26T06:10:34.801Z,29.85
2023-04-26T06:12:06.126Z,30.84
2023-04-26T06:13:37.711Z,27.34
2023-04-26T06:15:09.101Z,31.02
2023-04-26T06:16:42.995Z,26.37
2023-04-26T06:18:15.035Z,29.88
2023-04-26T06:19:46.335Z,29.14
2023-04-26T06:21:17.566Z,28.42
2023-04-26T06:22:48.755Z,30.63
2023-04-26T06:24:20.002Z,31.24
2023-04-26T06:25:51.344Z,31.10
2023-04-26T06:27:23.019Z,34.84
2023-04-26T06:28:54.481Z,27.10
2023-04-26T06:30:25.854Z,31.74
2023-04-26T06:31:57.903Z,30.33
2023-04-26T06:33:29.147Z,31.16
2023-04-26T06:35:00.405Z,30.68
2023-04-26T06:36:31.658Z,30.37
2023-04-26T06:38:02.808Z,29.22
2023-04-26T06:39:34.049Z,26.14
2023-04-26T06:41:05.219Z,26.65
2023-04-26T06:42:37.281Z,27.99
2023-04-26T06:44:08.455Z,27.33
2023-04-26T06:45:41.432Z,26.39
2023-04-26T06:47:13.671Z,27.80
2023-04-26T06:48:45.270Z,23.54
2023-04-26T06:50:16.444Z,26.19
2023-04-26T06:51:47.869Z,23.25
2023-04-26T06:53:20.232Z,22.88
2023-04-26T06:54:57.067Z,27.44
2023-04-26T06:56:29.003Z,26.46
2023-04-26T06:58:00.598Z,25.78
2023-04-26T06:59:31.937Z,26.33
2023-04-26T07:01:03.831Z,25.76
2023-04-26T07:02:35.278Z,25.59
2023-04-26T07:04:11.809Z,25.02
2023-04-26T07:05:43.374Z,24.58
2023-04-26T07:07:14.770Z,23.79
2023-04-26T07:08:46.123Z,22.77
2023-04-26T07:10:17.417Z,22.01
2023-04-26T07:11:53.834Z,24.23
2023-04-26T07:13:30.604Z,24.96
2023-04-26T07:15:01.982Z,22.64
2023-04-26T07:16:33.480Z,20.39
2023-04-26T07:18:05.004Z,23.25
2023-04-26T07:19:36.442Z,20.42
2023-04-26T07:21:07.641Z,22.12
2023-04-26T07:22:39.134Z,21.97
2023-04-26T07:24:10.498Z,19.64
2023-04-26T07:25:42.116Z,23.48
2023-04-26T07:27:13.664Z,22.54
2023-04-26T07:28:45.159Z,16.87
2023-04-26T07:30:16.415Z,17.70
2023-04-26T07:31:47.683Z,14.15
2023-04-26T07:33:19.018Z,18.85
2023-04-26T07:34:50.376Z,13.91
2023-04-26T07:36:23.096Z,11.92
2023-04-26T07:37:55.856Z,12.35
2023-04-26T07:39:27.309Z,12.98
2023-04-26T07:40:58.534Z,13.01
2023-04-26T07:42:29.807Z,16.73
2023-04-26T07:44:01.124Z,16.08
2023-04-26T07:45:32.676Z,14.43
2023-04-26T07:47:04.014Z,16.22
2023-04-26T07:48:35.284Z,16.11
2023-04-26T07:50:06.525Z,14.11
2023-04-26T07:51:38.054Z,14.27
2023-04-26T07:53:09.339Z,16.44
2023-04-26T07:54:40.792Z,19.35
2023-04-26T07:56:12.053Z,13.54
2023-04-26T07:57:43.297Z,12.71
2023-04-26T07:59:25.587Z,12.78
2023-04-26T08:00:56.989Z,12.87
2023-04-26T08:02:43.587Z,10.59
2023-04-26T08:04:16.324Z,15.16
2023-04-26T08:05:48.019Z,15.06
2023-04-26T08:07:19.625Z,10.50
2023-04-26T08:08:51.191Z,12.67
2023-04-26T08:10:22.442Z,11.77
2023-04-26T08:11:53.943Z,12.28
2023-04-26T08:13:28.576Z,8.59
2023-04-26T08:15:00.758Z,11.22
2023-04-26T08:16:32.216Z,12.13
2023-04-26T08:18:03.623Z,11.42
2023-04-26T08:19:34.963Z,13.30
2023-04-26T08:21:06.243Z,11.48
2023-04-26T08:22:37.592Z,9.82
2023-04-26T08:24:08.839Z,10.53
2023-04-26T08:25:40.276Z,10.29
2023-04-26T08:27:11.503Z,10.91
2023-04-26T08:28:43.149Z,12.42
2023-04-26T08:30:14.354Z,13.74
2023-04-26T08:31:45.617Z,12.27
2023-04-26T08:33:16.918Z,10.72
2023-04-26T08:34:48.284Z,10.48
2023-04-26T08:36:19.694Z,11.45
2023-04-26T08:37:51.090Z,12.08
2023-04-26T08:39:22.425Z,12.41
2023-04-26T08:40:53.927Z,9.51
2023-04-26T08:42:25.361Z,13.87
2023-04-26T08:43:56.658Z,10.00
2023-04-26T08:45:27.948Z,9.07
2023-04-26T08:46:59.283Z,10.94
2023-04-26T08:48:30.564Z,12.77
2023-04-26T08:50:06.851Z,9.42
2023-04-26T08:51:38.196Z,10.19
2023-04-26T08:53:09.492Z,11.36
2023-04-26T08:54:40.978Z,9.56
2023-04-26T08:56:12.239Z,9.18
2023-04-26T08:57:43.716Z,9.16
2023-04-26T08:59:15.207Z,9.03
2023-04-26T09:00:46.557Z,8.90
2023-04-26T09:02:17.993Z,8.97
2023-04-26T09:03:49.672Z,9.42
2023-04-26T09:05:21.041Z,10.44
2023-04-26T09:06:52.573Z,7.52
2023-04-26T09:08:23.878Z,9.97
2023-04-26T09:09:55.178Z,9.94
2023-04-26T09:11:26.769Z,9.97
2023-04-26T09:12:58.088Z,8.03
2023-04-26T09:14:29.373Z,11.06
2023-04-26T09:16:02.721Z,10.31
2023-04-26T09:17:36.242Z,10.11
2023-04-26T09:19:07.718Z,9.76
2023-04-26T09:20:39.336Z,10.52
2023-04-26T09:22:10.641Z,8.45
2023-04-26T09:23:42.041Z,8.41
2023-04-26T09:25:13.240Z,8.46
2023-04-26T09:26:44.492Z,8.00
2023-04-26T09:28:16.011Z,8.74
2023-04-26T09:29:47.311Z,10.36
2023-04-26T09:31:18.753Z,11.44
2023-04-26T09:32:50.135Z,11.90
2023-04-26T09:34:26.504Z,11.54
2023-04-26T09:36:07.816Z,11.66
2023-04-26T09:37:47.625Z,9.34
2023-04-26T09:39:28.588Z,10.69
2023-04-26T09:40:59.941Z,11.06
2023-04-26T09:42:31.355Z,9.16
2023-04-26T09:44:02.911Z,10.80
2023-04-26T09:45:34.171Z,13.39
2023-04-26T09:47:05.558Z,11.12
2023-04-26T09:48:37.011Z,9.04
2023-04-26T09:50:08.597Z,9.48
2023-04-26T09:51:39.867Z,10.78
2023-04-26T09:53:11.251Z,9.92
2023-04-26T09:54:42.673Z,13.20
2023-04-26T09:56:14.029Z,9.77
2023-04-26T09:57:45.535Z,11.43
2023-04-26T09:59:16.740Z,13.15
2023-04-26T10:00:48.049Z,11.56
2023-04-26T10:02:19.325Z,9.67
2023-04-26T10:03:50.731Z,9.18
2023-04-26T10:05:22.140Z,8.78
2023-04-26T10:06:53.639Z,10.58
2023-04-26T10:08:24.947Z,9.31
2023-04-26T10:09:56.194Z,10.90
2023-04-26T10:11:27.488Z,10.25
2023-04-26T10:12:59.016Z,10.00
2023-04-26T10:14:30.618Z,10.90
2023-04-26T10:16:02.175Z,12.38
2023-04-26T10:17:33.779Z,11.06
2023-04-26T10:19:05.040Z,9.92
2023-04-26T10:20:36.252Z,8.96
2023-04-26T10:22:07.472Z,12.45
2023-04-26T10:23:38.842Z,12.99
2023-04-26T10:25:10.290Z,10.85
2023-04-26T10:26:41.522Z,10.26
2023-04-26T10:28:12.993Z,10.40
2023-04-26T10:29:44.244Z,13.19
2023-04-26T10:31:15.734Z,11.12
2023-04-26T10:32:47.060Z,10.58
2023-04-26T10:34:18.442Z,9.31
2023-04-26T10:35:49.846Z,8.71
2023-04-26T10:37:21.166Z,9.62
2023-04-26T10:38:52.695Z,11.92
2023-04-26T10:40:24.140Z,12.15
2023-04-26T10:41:55.544Z,11.42
2023-04-26T10:43:26.804Z,9.45
2023-04-26T10:44:58.235Z,10.45
2023-04-26T10:46:29.809Z,11.30
2023-04-26T10:48:01.471Z,10.92
2023-04-26T10:49:32.835Z,8.17
2023-04-26T10:51:04.540Z,10.32
2023-04-26T10:52:35.834Z,10.46
2023-04-26T10:54:07.143Z,9.52
2023-04-26T10:55:38.441Z,6.96
2023-04-26T10:57:09.799Z,9.08
2023-04-26T10:58:41.122Z,10.28
2023-04-26T11:01:52.472Z,7.90
2023-04-26T11:03:24.406Z,11.17
2023-04-26T11:04:55.981Z,9.79
2023-04-26T11:06:27.607Z,8.50
2023-04-26T11:07:58.947Z,9.62
2023-04-26T11:09:30.398Z,9.71
2023-04-26T11:11:01.844Z,12.20
2023-04-26T11:12:33.489Z,10.74
2023-04-26T11:14:04.999Z,11.48
2023-04-26T11:15:36.467Z,10.58
2023-04-26T11:17:07.761Z,11.63
2023-04-26T11:18:39.144Z,11.84
2023-04-26T11:20:10.511Z,9.70
2023-04-26T11:21:41.768Z,10.51
2023-04-26T11:23:13.075Z,12.15
2023-04-26T11:24:44.369Z,14.00
2023-04-26T11:26:15.682Z,12.08
2023-04-26T11:27:46.969Z,12.94
2023-04-26T11:29:18.352Z,10.15
2023-04-26T11:30:50.065Z,12.49
2023-04-26T11:32:21.435Z,13.26
2023-04-26T11:33:52.739Z,10.73
2023-04-26T11:35:43.957Z,11.37
2023-04-26T11:37:15.562Z,13.36
2023-04-26T11:38:47.183Z,13.86
2023-04-26T11:40:34.732Z,10.78
2023-04-26T11:42:10.488Z,12.96
2023-04-26T11:43:42.180Z,10.91
2023-04-26T11:45:14.014Z,10.86
2023-04-26T11:46:45.316Z,12.11
2023-04-26T11:48:16.963Z,8.98
2023-04-26T11:49:48.340Z,9.62
2023-04-26T11:51:19.684Z,9.38
2023-04-26T11:52:50.966Z,10.34
2023-04-26T11:54:22.305Z,10.47
2023-04-26T11:55:53.832Z,11.02
2023-04-26T11:57:25.330Z,11.92
2023-04-26T11:58:56.921Z,10.74
2023-04-26T12:00:29.143Z,11.95
2023-04-26T12:02:00.793Z,12.76
2023-04-26T12:03:32.228Z,13.30
2023-04-26T12:05:03.802Z,10.32
2023-04-26T12:06:35.452Z,13.35
2023-04-26T12:08:06.980Z,12.24
2023-04-26T12:09:38.308Z,9.34
2023-04-26T12:11:09.630Z,11.16
2023-04-26T12:12:40.900Z,10.47
2023-04-26T12:14:12.147Z,10.04
2023-04-26T12:15:43.572Z,10.73
2023-04-26T12:17:14.974Z,9.78
2023-04-26T12:18:46.362Z,11.63
2023-04-26T12:20:17.650Z,10.29
2023-04-26T12:21:49.100Z,10.22
2023-04-26T12:23:20.622Z,10.53
2023-04-26T12:24:51.982Z,11.07
2023-04-26T12:26:23.324Z,9.29
2023-04-26T12:27:54.627Z,9.54
2023-04-26T12:29:25.986Z,9.83
2023-04-26T12:30:57.369Z,12.02
2023-04-26T12:32:29.007Z,10.01
2023-04-26T12:34:00.424Z,9.26
2023-04-26T12:35:31.815Z,8.29
2023-04-26T12:37:03.301Z,12.41
2023-04-26T12:38:34.887Z,9.13
2023-04-26T12:40:06.170Z,8.64
2023-04-26T12:41:37.661Z,8.34
2023-04-26T12:43:08.915Z,8.00
2023-04-26T12:44:40.361Z,9.81
2023-04-26T12:46:11.739Z,9.74
2023-04-26T12:47:43.170Z,9.08
2023-04-26T12:49:14.614Z,8.91
2023-04-26T12:50:46.062Z,7.92
2023-04-26T12:52:17.963Z,9.96
2023-04-26T12:53:49.440Z,9.86
2023-04-26T12:55:21.026Z,8.01
2023-04-26T12:56:52.446Z,9.08
2023-04-26T12:58:24.065Z,8.83
2023-04-26T12:59:55.641Z,10.58
2023-04-26T13:01:26.964Z,7.00
2023-04-26T13:02:58.988Z,7.56
2023-04-26T13:04:30.831Z,7.44
2023-04-26T13:06:02.452Z,7.98
2023-04-26T13:07:33.912Z,11.23
2023-04-26T13:09:10.317Z,7.32
2023-04-26T13:10:41.889Z,8.74
2023-04-26T13:12:40.601Z,8.04
2023-04-26T13:14:23.207Z,8.17
2023-04-26T13:15:55.813Z,10.32
2023-04-26T13:17:27.265Z,9.13
2023-04-26T13:18:59.131Z,8.12
2023-04-26T13:20:40.648Z,8.88
2023-04-26T13:22:27.206Z,10.09
2023-04-26T13:23:58.616Z,8.20
2023-04-26T13:25:29.985Z,7.37
2023-04-26T13:27:11.455Z,8.31
2023-04-26T13:28:42.976Z,8.19
2023-04-26T13:30:14.386Z,7.85
2023-04-26T13:31:45.819Z,7.94
2023-04-26T13:33:17.458Z,6.01
2023-04-26T13:34:49.297Z,7.76
2023-04-26T13:36:20.759Z,9.67
2023-04-26T13:37:52.184Z,7.88
2023-04-26T13:39:23.723Z,8.63
2023-04-26T13:40:55.163Z,9.64
2023-04-26T13:42:26.837Z,6.93
2023-04-26T13:43:58.404Z,7.63
2023-04-26T13:45:41.886Z,8.28
2023-04-26T13:47:18.644Z,6.10
2023-04-26T13:48:55.172Z,6.31
2023-04-26T13:50:26.554Z,7.80
2023-04-26T13:51:57.947Z,6.77
2023-04-26T13:53:29.299Z,5.88
2023-04-26T13:55:00.896Z,7.54
2023-04-26T13:56:32.351Z,6.73
2023-04-26T13:58:03.788Z,7.57
2023-04-26T13:59:35.174Z,8.16
2023-04-26T14:01:06.711Z,6.78
2023-04-26T14:02:38.184Z,5.80
2023-04-26T14:04:09.805Z,7.02
2023-04-26T14:05:41.397Z,6.39
2023-04-26T14:07:12.790Z,8.37
2023-04-26T14:08:44.217Z,7.62
2023-04-26T14:10:15.537Z,7.57
2023-04-26T14:11:49.465Z,6.66
2023-04-26T14:13:25.615Z,8.61
2023-04-26T14:14:56.966Z,9.25
2023-04-26T14:16:29.533Z,7.04
2023-04-26T14:18:01.071Z,6.39
2023-04-26T14:19:32.530Z,4.84
2023-04-26T14:21:04.162Z,4.63
2023-04-26T14:22:35.525Z,6.62
2023-04-26T14:24:06.918Z,7.01
2023-04-26T14:25:38.342Z,5.81
2023-04-26T14:27:19.807Z,7.62
2023-04-26T14:28:51.293Z,5.49
2023-04-26T14:30:32.739Z,6.69
2023-04-26T14:32:04.152Z,8.92
2023-04-26T14:33:35.617Z,8.49
2023-04-26T14:35:07.050Z,7.04
2023-04-26T14:36:38.676Z,8.97
2023-04-26T14:38:10.147Z,8.26
2023-04-26T14:39:41.602Z,6.08
2023-04-26T14:41:13.276Z,6.03
2023-04-26T14:42:44.662Z,5.42
2023-04-26T14:44:16.063Z,7.08
2023-04-26T14:46:15.744Z,5.63
2023-04-26T14:47:54.194Z,7.89
2023-04-26T14:49:25.574Z,6.24
2023-04-26T14:51:06.957Z,6.64
2023-04-26T14:52:49.893Z,5.28
2023-04-26T14:54:31.420Z,7.07
2023-04-26T14:56:02.704Z,5.92
2023-04-26T14:57:34.171Z,8.81
2023-04-26T14:59:05.514Z,7.52
2023-04-26T15:00:41.947Z,9.72
2023-04-26T15:02:33.553Z,7.88
2023-04-26T15:04:15.230Z,9.73
2023-04-26T15:05:47.052Z,7.16
2023-04-26T15:07:32.581Z,7.61
2023-04-26T15:09:04.586Z,8.90
2023-04-26T15:10:36.381Z,7.21
2023-04-26T15:12:07.865Z,9.56
2023-04-26T15:13:39.275Z,8.19
2023-04-26T15:15:15.752Z,10.66
2023-04-26T15:16:47.802Z,6.75
2023-04-26T15:18:19.776Z,7.13
2023-04-26T15:19:51.140Z,6.74
2023-04-26T15:21:22.543Z,6.96
2023-04-26T15:22:54.081Z,7.05
2023-04-26T15:24:25.553Z,8.01
2023-04-26T15:25:57.018Z,8.37
2023-04-26T15:27:42.382Z,8.02
2023-04-26T15:29:32.553Z,8.42
2023-04-26T15:31:09.765Z,7.69
2023-04-26T15:32:41.261Z,7.22
2023-04-26T15:34:18.389Z,6.68
2023-04-26T15:38:39.848Z,7.56
2023-04-26T15:40:11.286Z,7.02
2023-04-26T15:41:52.875Z,6.70
2023-04-26T15:43:24.375Z,7.23
2023-04-26T15:44:55.843Z,7.59
2023-04-26T15:46:27.315Z,8.36
2023-04-26T15:47:59.110Z,7.46
2023-04-26T15:49:30.609Z,8.00
2023-04-26T15:51:02.105Z,7.54
2023-04-26T15:52:33.391Z,6.63
2023-04-26T15:54:05.553Z,7.63
2023-04-26T15:55:37.379Z,6.36
2023-04-26T15:57:08.991Z,8.86
2023-04-26T15:58:41.700Z,8.41
2023-04-26T16:00:13.741Z,8.69
2023-04-26T16:01:45.654Z,7.59
2023-04-26T16:03:19.666Z,9.21
2023-04-26T16:04:51.528Z,8.26
2023-04-26T16:06:23.238Z,7.54
2023-04-26T16:07:54.592Z,9.04
2023-04-26T16:09:26.239Z,8.28
2023-04-26T16:10:57.878Z,6.00
2023-04-26T16:12:29.355Z,7.75
2023-04-26T16:14:01.154Z,8.11
2023-04-26T16:15:32.576Z,9.90
2023-04-26T16:17:04.133Z,10.83
2023-04-26T16:18:35.924Z,8.65
2023-04-26T16:20:07.340Z,10.90
2023-04-26T16:21:38.638Z,8.82
2023-04-26T16:23:10.008Z,6.60
2023-04-26T16:24:41.567Z,6.98
2023-04-26T16:26:13.109Z,8.04
2023-04-26T16:27:44.825Z,8.37
2023-04-26T16:29:16.420Z,8.77
2023-04-26T16:30:47.812Z,7.75
2023-04-26T16:32:19.189Z,8.44
2023-04-26T16:33:50.596Z,7.20
2023-04-26T16:35:21.996Z,9.26
2023-04-26T16:36:53.478Z,9.10
2023-04-26T16:38:24.986Z,7.82
2023-04-26T16:39:56.619Z,7.41
2023-04-26T16:41:28.175Z,7.26
2023-04-26T16:42:59.767Z,6.99
2023-04-26T16:44:31.329Z,9.26
2023-04-26T16:46:02.707Z,7.86
2023-04-26T16:47:34.513Z,12.16
2023-04-26T16:49:05.832Z,8.32
2023-04-26T16:50:37.266Z,6.70
2023-04-26T16:52:18.644Z,8.04
2023-04-26T16:53:50.280Z,8.44
2023-04-26T16:55:23.298Z,8.34
2023-04-26T16:56:54.822Z,7.13
2023-04-26T16:58:26.258Z,7.45
2023-04-26T16:59:58.246Z,7.83
2023-04-26T17:01:29.781Z,8.49
2023-04-26T17:03:01.440Z,9.28
2023-04-26T17:04:33.337Z,9.28
2023-04-26T17:06:04.765Z,9.42
2023-04-26T17:07:36.753Z,7.41
2023-04-26T17:09:08.260Z,8.25
2023-04-26T17:10:39.582Z,7.18
2023-04-26T17:12:10.878Z,7.98
2023-04-26T17:13:42.300Z,7.26
2023-04-26T17:15:13.649Z,7.01
2023-04-26T17:16:45.135Z,6.17
2023-04-26T17:18:17.013Z,6.38
2023-04-26T17:19:48.568Z,6.58
2023-04-26T17:21:31.476Z,6.46
2023-04-26T17:23:09.137Z,7.71
2023-04-26T17:26:55.901Z,8.59
2023-04-26T17:28:43.029Z,9.91
2023-04-26T17:30:14.629Z,9.91
2023-04-26T17:31:46.258Z,7.22
2023-04-26T17:33:18.011Z,5.85
2023-04-26T17:34:49.648Z,7.27
2023-04-26T17:36:32.181Z,8.71
2023-04-26T17:38:51.574Z,8.23
2023-04-26T17:40:23.522Z,6.59
2023-04-26T17:41:55.990Z,7.45
2023-04-26T17:43:27.415Z,7.26
2023-04-26T17:45:00.162Z,8.38
2023-04-26T17:46:33.926Z,10.69
2023-04-26T17:48:06.228Z,9.52
2023-04-26T17:49:38.240Z,7.83
2023-04-26T17:51:09.885Z,8.18
2023-04-26T17:52:52.256Z,9.32
2023-04-26T17:54:23.648Z,9.29
2023-04-26T17:56:23.361Z,7.78
2023-04-26T17:57:54.742Z,7.34
2023-04-26T17:59:26.310Z,10.48
2023-04-26T18:00:58.355Z,8.52
2023-04-26T18:02:40.441Z,6.86
2023-04-26T18:04:12.200Z,9.27
2023-04-26T18:05:45.254Z,11.19
2023-04-26T18:07:16.800Z,10.14
2023-04-26T18:08:49.053Z,8.67
2023-04-26T18:10:20.947Z,8.48
2023-04-26T18:11:57.740Z,7.08
2023-04-26T18:13:34.110Z,7.90
2023-04-26T18:15:05.677Z,7.83
2023-04-26T18:16:43.728Z,8.10
2023-04-26T18:18:22.054Z,7.70
2023-04-26T18:22:11.617Z,7.94
2023-04-26T18:23:50.086Z,8.73
2023-04-26T18:25:23.842Z,8.68
2023-04-26T18:26:56.103Z,7.24
2023-04-26T18:28:32.537Z,7.08
2023-04-26T18:30:33.538Z,9.68
2023-04-26T18:32:22.784Z,10.01
2023-04-26T18:34:15.567Z,7.95
2023-04-26T18:35:52.470Z,8.28
2023-04-26T18:37:46.273Z,7.70
2023-04-26T18:39:18.150Z,9.40
2023-04-26T18:41:01.647Z,8.13
2023-04-26T18:42:50.429Z,8.77
2023-04-26T18:44:22.060Z,8.06
2023-04-26T18:45:53.807Z,9.25
2023-04-26T18:47:30.602Z,9.64
2023-04-26T18:49:02.107Z,9.16
2023-04-26T18:50:33.947Z,11.74
2023-04-26T18:52:10.721Z,10.24
2023-04-26T18:53:42.641Z,9.16
2023-04-26T18:55:14.596Z,10.87
2023-04-26T18:56:56.689Z,9.30
2023-04-26T18:58:28.506Z,8.10
2023-04-26T19:00:26.774Z,9.29
2023-04-26T19:02:43.176Z,10.42
2023-04-26T19:04:15.451Z,9.33
2023-04-26T19:05:46.943Z,10.19
2023-04-26T19:07:18.554Z,9.75
2023-04-26T19:08:50.107Z,9.53
2023-04-26T19:10:21.517Z,9.70
2023-04-26T19:11:53.158Z,9.92
2023-04-26T19:13:24.746Z,9.71
2023-04-26T19:15:00.760Z,8.64
2023-04-26T19:16:33.175Z,9.72
2023-04-26T19:18:06.771Z,10.49
2023-04-26T19:19:38.672Z,9.83
2023-04-26T19:21:10.718Z,9.39
2023-04-26T19:22:44.035Z,9.02
2023-04-26T19:24:15.957Z,12.47
2023-04-26T19:25:52.849Z,9.04
2023-04-26T19:27:24.452Z,8.94
2023-04-26T19:28:56.470Z,9.73
2023-04-26T19:30:28.349Z,8.87
2023-04-26T19:32:00.107Z,10.55
2023-04-26T19:33:52.736Z,9.05
2023-04-26T19:35:24.710Z,9.18
2023-04-26T19:36:56.896Z,7.99
2023-04-26T19:38:28.599Z,8.05
2023-04-26T19:40:00.281Z,9.44
2023-04-26T19:41:31.959Z,8.47
2023-04-26T19:43:03.545Z,9.98
2023-04-26T19:44:35.148Z,9.73
2023-04-26T19:46:06.601Z,10.20
2023-04-26T19:47:54.108Z,8.78
2023-04-26T19:49:42.025Z,11.33
2023-04-26T19:51:14.420Z,9.51
2023-04-26T19:52:46.275Z,10.72
2023-04-26T19:54:28.870Z,13.24
2023-04-26T19:56:00.347Z,11.99
2023-04-26T19:57:41.702Z,8.97
2023-04-26T19:59:12.927Z,10.25
2023-04-26T20:00:54.835Z,9.76
2023-04-26T20:02:26.523Z,10.63
2023-04-26T20:04:03.817Z,8.47
2023-04-26T20:05:35.535Z,10.44
2023-04-26T20:07:07.005Z,9.62
2023-04-26T20:08:38.344Z,9.79
2023-04-26T20:10:10.044Z,10.89
2023-04-26T20:11:51.947Z,9.25
2023-04-26T20:13:34.037Z,10.04
2023-04-26T20:15:10.429Z,10.09
2023-04-26T20:16:56.938Z,10.70
2023-04-26T20:18:29.218Z,9.59
2023-04-26T20:20:00.969Z,10.57